createdAt,value
2019-03-28T00:01:21.869Z,102578.59
2019-03-28T00:03:50.306Z,102578.52
2019-03-28T00:06:18.762Z,102576.89
2019-03-28T00:08:47.218Z,102573.48
2019-03-28T00:11:15.659Z,102573.48
2019-03-28T00:13:44.108Z,102577.78
2019-03-28T00:16:12.580Z,102570.73
2019-03-28T00:18:41.069Z,102570.73
2019-03-28T00:21:09.548Z,102564.05
2019-03-28T00:23:42.360Z,102563.44
2019-03-28T00:26:10.846Z,102572.31
2019-03-28T00:28:39.260Z,102568.22
2019-03-28T00:31:07.704Z,102568.30
2019-03-28T00:33:36.162Z,102571.51
2019-03-28T00:36:04.697Z,102571.02
2019-03-28T00:38:33.164Z,102571.22
2019-03-28T00:41:01.602Z,102571.22
2019-03-28T00:43:30.093Z,102568.14
2019-03-28T00:45:58.514Z,102568.14
2019-03-28T00:48:27.218Z,102568.83
2019-03-28T00:50:55.891Z,102565.84
2019-03-28T00:53:24.343Z,102567.90
2019-03-28T00:55:52.814Z,102565.39
2019-03-28T00:58:21.265Z,102570.21
2019-03-28T01:00:49.708Z,102564.42
2019-03-28T01:03:18.185Z,102567.02
2019-03-28T01:05:46.618Z,102570.09
2019-03-28T01:08:15.089Z,102569.31
2019-03-28T01:10:43.918Z,102568.83
2019-03-28T01:13:12.392Z,102570.90
2019-03-28T01:15:40.873Z,102570.53
2019-03-28T01:18:09.338Z,102570.33
2019-03-28T01:20:37.781Z,102568.30
2019-03-28T01:23:06.270Z,102563.20
2019-03-28T01:25:34.728Z,102572.80
2019-03-28T01:28:03.175Z,102572.07
2019-03-28T01:30:31.629Z,102573.08
2019-03-28T01:33:00.086Z,102564.53
2019-03-28T01:35:28.552Z,102573.33
2019-03-28T01:37:57.025Z,102571.02
2019-03-28T01:40:26.175Z,102571.22
2019-03-28T01:42:54.917Z,102566.52
2019-03-28T01:45:23.376Z,102566.52
2019-03-28T01:47:51.825Z,102571.22
2019-03-28T01:50:20.290Z,102570.90
2019-03-28T01:52:48.721Z,102570.62
2019-03-28T01:55:17.186Z,102571.30
2019-03-28T01:57:45.678Z,102571.30
2019-03-28T02:00:14.479Z,102571.34
2019-03-28T02:02:42.949Z,102569.23
2019-03-28T02:05:13.564Z,102573.69
2019-03-28T02:07:42.002Z,102570.49
2019-03-28T02:10:11.011Z,102575.39
2019-03-28T02:12:39.477Z,102574.98
2019-03-28T02:15:09.356Z,102568.91
2019-03-28T02:17:37.993Z,102572.84
2019-03-28T02:20:07.593Z,102569.44
2019-03-28T02:22:36.060Z,102570.73
2019-03-28T02:25:06.354Z,102573.12
2019-03-28T02:27:34.818Z,102580.37
2019-03-28T02:30:03.738Z,102580.04
2019-03-28T02:32:32.181Z,102581.38
2019-03-28T02:35:00.801Z,102574.41
2019-03-28T02:37:29.225Z,102581.09
2019-03-28T02:39:57.655Z,102579.52
2019-03-28T02:42:26.115Z,102584.30
2019-03-28T02:44:54.559Z,102584.09
2019-03-28T02:47:22.995Z,102577.69
2019-03-28T02:49:51.456Z,102581.95
2019-03-28T02:52:19.897Z,102588.66
2019-03-28T02:54:48.361Z,102583.57
2019-03-28T02:57:16.814Z,102582.67
2019-03-28T02:59:45.262Z,102584.78
2019-03-28T03:02:13.723Z,102590.25
2019-03-28T03:04:42.152Z,102588.38
2019-03-28T03:07:10.603Z,102581.66
2019-03-28T03:09:39.064Z,102588.38
2019-03-28T03:12:07.534Z,102594.55
2019-03-28T03:14:35.974Z,102583.48
2019-03-28T03:17:04.408Z,102582.56
2019-03-28T03:19:32.889Z,102578.67
2019-03-28T03:22:01.363Z,102581.81
2019-03-28T03:24:29.796Z,102584.25
2019-03-28T03:26:58.254Z,102583.24
2019-03-28T03:29:26.741Z,102583.97
2019-03-28T03:31:55.205Z,102586.28
2019-03-28T03:34:23.672Z,102581.50
2019-03-28T03:36:52.125Z,102591.95
2019-03-28T03:39:20.587Z,102589.93
2019-03-28T03:41:49.048Z,102591.39
2019-03-28T03:44:17.504Z,102586.28
2019-03-28T03:46:45.987Z,102592.11
2019-03-28T03:49:14.443Z,102585.63
2019-03-28T03:51:46.341Z,102587.66
2019-03-28T03:54:13.080Z,102594.30
2019-03-28T03:56:41.530Z,102594.41
2019-03-28T03:59:09.992Z,102592.17
2019-03-28T04:01:38.434Z,102598.38
2019-03-28T04:04:06.884Z,102597.56
2019-03-28T04:06:35.343Z,102593.84
2019-03-28T04:09:05.076Z,102605.52
2019-03-28T04:11:33.531Z,102600.97
2019-03-28T04:14:02.631Z,102603.27
2019-03-28T04:16:31.251Z,102599.59
2019-03-28T04:18:59.741Z,102601.58
2019-03-28T04:21:28.211Z,102599.22
2019-03-28T04:23:56.655Z,102606.76
2019-03-28T04:26:26.872Z,102599.59
2019-03-28T04:28:55.785Z,102605.80
2019-03-28T04:31:24.222Z,102608.95
2019-03-28T04:33:52.686Z,102612.34
2019-03-28T04:36:21.133Z,102614.34
2019-03-28T04:38:50.545Z,102612.55
2019-03-28T04:41:19.133Z,102613.37
2019-03-28T04:43:47.560Z,102624.67
2019-03-28T04:46:16.017Z,102624.50
2019-03-28T04:48:44.465Z,102626.69
2019-03-28T04:51:12.943Z,102633.41
2019-03-28T04:53:41.466Z,102633.90
2019-03-28T04:56:09.943Z,102634.70
2019-03-28T04:58:44.489Z,102637.91
2019-03-28T05:01:08.757Z,102632.94
2019-03-28T05:03:37.225Z,102638.19
2019-03-28T05:06:05.706Z,102634.86
2019-03-28T05:08:34.146Z,102642.48
2019-03-28T05:11:02.587Z,102640.59
2019-03-28T05:13:33.718Z,102643.45
2019-03-28T05:16:02.168Z,102643.14
2019-03-28T05:18:30.638Z,102642.49
2019-03-28T05:20:59.099Z,102645.00
2019-03-28T05:23:27.533Z,102641.52
2019-03-28T05:25:55.996Z,102644.83
2019-03-28T05:28:25.411Z,102649.33
2019-03-28T05:30:54.027Z,102648.28
2019-03-28T05:33:22.471Z,102654.08
2019-03-28T05:35:50.947Z,102657.37
2019-03-28T05:38:19.390Z,102660.70
2019-03-28T05:40:47.863Z,102652.84
2019-03-28T05:43:16.330Z,102657.84
2019-03-28T05:45:47.510Z,102663.30
2019-03-28T05:48:14.985Z,102666.23
2019-03-28T05:50:43.431Z,102667.04
2019-03-28T05:53:11.916Z,102671.20
2019-03-28T05:55:40.389Z,102669.17
2019-03-28T05:58:09.759Z,102676.14
2019-03-28T06:00:39.114Z,102677.50
2019-03-28T06:03:08.629Z,102674.36
2019-03-28T06:05:37.102Z,102676.81
2019-03-28T06:08:05.570Z,102683.97
2019-03-28T06:10:34.054Z,102685.80
2019-03-28T06:13:02.515Z,102682.12
2019-03-28T06:15:30.986Z,102690.11
2019-03-28T06:17:59.467Z,102693.03
2019-03-28T06:20:27.915Z,102700.59
2019-03-28T06:22:56.399Z,102708.03
2019-03-28T06:25:24.857Z,102706.59
2019-03-28T06:27:53.303Z,102708.16
2019-03-28T06:30:21.941Z,102704.14
2019-03-28T06:32:50.385Z,102714.36
2019-03-28T06:35:21.839Z,102715.53
2019-03-28T06:37:51.392Z,102711.81
2019-03-28T06:40:19.273Z,102718.86
2019-03-28T06:42:47.716Z,102717.72
2019-03-28T06:45:16.161Z,102721.27
2019-03-28T06:47:44.623Z,102726.51
2019-03-28T06:50:13.314Z,102726.30
2019-03-28T06:52:41.781Z,102724.66
2019-03-28T06:55:10.298Z,102727.53
2019-03-28T06:57:38.739Z,102731.30
2019-03-28T07:00:11.613Z,102743.30
2019-03-28T07:02:40.146Z,102742.00
2019-03-28T07:05:08.845Z,102741.05
2019-03-28T07:07:37.322Z,102740.48
2019-03-28T07:10:07.239Z,102741.52
2019-03-28T07:12:35.690Z,102737.90
2019-03-28T07:15:08.511Z,102741.84
2019-03-28T07:17:36.994Z,102739.31
2019-03-28T07:20:09.231Z,102743.47
2019-03-28T07:22:37.921Z,102740.08
2019-03-28T07:25:07.702Z,102741.15
2019-03-28T07:27:36.145Z,102747.00
2019-03-28T07:30:07.247Z,102747.00
2019-03-28T07:32:35.891Z,102747.33
2019-03-28T07:35:06.653Z,102752.47
2019-03-28T07:37:35.115Z,102760.98
2019-03-28T07:40:05.419Z,102754.91
2019-03-28T07:42:33.820Z,102761.13
2019-03-28T07:45:02.557Z,102761.13
2019-03-28T07:47:30.997Z,102758.67
2019-03-28T07:49:59.470Z,102765.68
2019-03-28T07:52:27.899Z,102765.68
2019-03-28T07:54:56.352Z,102767.39
2019-03-28T07:57:24.788Z,102771.20
2019-03-28T08:00:03.498Z,102771.51
2019-03-28T08:02:23.446Z,102770.30
2019-03-28T08:04:52.472Z,102770.30
2019-03-28T08:07:21.044Z,102775.97
2019-03-28T08:09:49.522Z,102773.93
2019-03-28T08:12:22.924Z,102777.31
2019-03-28T08:14:48.149Z,102772.17
2019-03-28T08:17:16.608Z,102767.84
2019-03-28T08:19:45.065Z,102769.21
2019-03-28T08:22:13.505Z,102768.73
2019-03-28T08:24:41.984Z,102774.36
2019-03-28T08:27:10.465Z,102774.36
2019-03-28T08:29:38.896Z,102781.38
2019-03-28T08:32:09.198Z,102781.38
2019-03-28T08:34:37.913Z,102773.52
2019-03-28T08:37:06.486Z,102790.62
2019-03-28T08:39:34.940Z,102791.36
2019-03-28T08:42:03.388Z,102790.18
2019-03-28T08:44:31.856Z,102790.18
2019-03-28T08:47:00.310Z,102800.31
2019-03-28T08:49:28.754Z,102800.38
2019-03-28T08:51:57.191Z,102803.89
2019-03-28T08:54:27.920Z,102803.89
2019-03-28T08:56:56.389Z,102802.91
2019-03-28T08:59:25.787Z,102801.91
2019-03-28T09:01:54.424Z,102812.00
2019-03-28T09:04:22.860Z,102812.00
2019-03-28T09:06:51.290Z,102816.06
2019-03-28T09:09:21.377Z,102814.08
2019-03-28T09:11:49.995Z,102814.08
2019-03-28T09:14:18.452Z,102799.59
2019-03-28T09:16:46.904Z,102799.59
2019-03-28T09:19:15.356Z,102808.77
2019-03-28T09:21:43.835Z,102808.77
2019-03-28T09:24:12.290Z,102801.22
2019-03-28T09:26:40.749Z,102799.19
2019-03-28T09:29:09.222Z,102804.74
2019-03-28T09:31:37.778Z,102810.38
2019-03-28T09:34:06.216Z,102790.95
2019-03-28T09:36:34.638Z,102807.95
2019-03-28T09:39:04.088Z,102812.37
2019-03-28T09:41:32.535Z,102812.37
2019-03-28T09:44:01.018Z,102797.56
2019-03-28T09:46:29.561Z,102805.50
2019-03-28T09:48:58.584Z,102799.33
2019-03-28T09:51:27.119Z,102797.77
2019-03-28T09:53:55.561Z,102787.58
2019-03-28T09:56:24.132Z,102787.58
2019-03-28T09:58:52.573Z,102797.02
2019-03-28T10:01:21.043Z,102792.11
2019-03-28T10:03:49.533Z,102798.25
2019-03-28T10:06:17.999Z,102800.36
2019-03-28T10:08:46.437Z,102799.98
2019-03-28T10:11:14.962Z,102799.55
2019-03-28T10:13:43.409Z,102801.83
2019-03-28T10:16:11.894Z,102774.56
2019-03-28T10:18:40.340Z,102799.78
2019-03-28T10:21:08.824Z,102806.31
2019-03-28T10:23:39.848Z,102804.78
2019-03-28T10:26:07.462Z,102804.78
2019-03-28T10:28:35.910Z,102798.77
2019-03-28T10:31:15.918Z,102815.13
2019-03-28T10:33:34.641Z,102815.13
2019-03-28T10:36:03.082Z,102813.88
2019-03-28T10:38:31.562Z,102816.27
2019-03-28T10:41:00.046Z,102813.78
2019-03-28T10:43:28.465Z,102813.78
2019-03-28T10:45:56.949Z,102810.53
2019-03-28T10:48:25.416Z,102811.91
2019-03-28T10:50:53.870Z,102812.00
2019-03-28T10:53:22.393Z,102813.50
2019-03-28T10:55:50.945Z,102812.84
2019-03-28T10:58:19.791Z,102808.72
2019-03-28T11:00:48.401Z,102807.79
2019-03-28T11:03:16.890Z,102814.42
2019-03-28T11:05:45.310Z,102808.75
2019-03-28T11:08:13.771Z,102812.27
2019-03-28T11:10:42.220Z,102818.48
2019-03-28T11:13:11.439Z,102821.64
2019-03-28T11:15:39.923Z,102827.42
2019-03-28T11:18:08.349Z,102830.91
2019-03-28T11:20:39.820Z,102827.25
2019-03-28T11:23:07.332Z,102826.03
2019-03-28T11:25:36.012Z,102835.47
2019-03-28T11:28:04.490Z,102844.09
2019-03-28T11:30:32.933Z,102844.09
2019-03-28T11:33:01.410Z,102847.41
2019-03-28T11:35:29.867Z,102846.09
2019-03-28T11:37:58.326Z,102848.78
2019-03-28T11:40:26.800Z,102852.97
2019-03-28T11:42:55.275Z,102851.88
2019-03-28T11:45:26.928Z,102844.45
2019-03-28T11:47:53.924Z,102843.36
2019-03-28T11:50:22.377Z,102854.98
2019-03-28T11:52:50.840Z,102847.34
2019-03-28T11:55:19.365Z,102853.59
2019-03-28T11:57:47.809Z,102856.78
2019-03-28T12:00:18.135Z,102856.81
2019-03-28T12:02:46.595Z,102862.94
2019-03-28T12:05:15.896Z,102860.36
2019-03-28T12:07:44.359Z,102853.84
2019-03-28T12:10:13.570Z,102853.69
2019-03-28T12:12:42.052Z,102858.91
2019-03-28T12:15:11.272Z,102857.72
2019-03-28T12:17:39.799Z,102853.11
2019-03-28T12:20:09.680Z,102855.66
2019-03-28T12:22:38.146Z,102853.86
2019-03-28T12:25:06.992Z,102856.77
2019-03-28T12:27:35.547Z,102856.48
2019-03-28T12:30:08.267Z,102862.17
2019-03-28T12:32:36.720Z,102866.03
2019-03-28T12:35:07.898Z,102858.86
2019-03-28T12:37:36.822Z,102867.05
2019-03-28T12:40:07.476Z,102855.86
2019-03-28T12:42:35.915Z,102855.87
2019-03-28T12:45:07.442Z,102861.00
2019-03-28T12:47:42.234Z,102859.38
2019-03-28T12:50:10.591Z,102861.39
2019-03-28T12:52:39.048Z,102854.04
2019-03-28T12:55:08.862Z,102860.64
2019-03-28T12:57:37.324Z,102855.15
2019-03-28T13:00:10.431Z,102869.53
2019-03-28T13:02:38.869Z,102864.50
2019-03-28T13:05:08.522Z,102862.23
2019-03-28T13:07:36.964Z,102868.41
2019-03-28T13:10:10.437Z,102868.83
2019-03-28T13:12:38.887Z,102869.59
2019-03-28T13:15:08.886Z,102874.41
2019-03-28T13:17:37.519Z,102874.20
2019-03-28T13:20:08.591Z,102879.22
2019-03-28T13:22:37.031Z,102877.34
2019-03-28T13:25:07.424Z,102879.55
2019-03-28T13:27:36.753Z,102878.44
2019-03-28T13:30:11.238Z,102873.59
2019-03-28T13:32:42.189Z,102873.59
2019-03-28T13:35:09.970Z,102871.19
2019-03-28T13:37:38.422Z,102872.61
2019-03-28T13:40:09.066Z,102871.52
2019-03-28T13:42:38.819Z,102875.86
2019-03-28T13:45:09.064Z,102872.67
2019-03-28T13:47:37.597Z,102874.67
2019-03-28T13:50:09.264Z,102873.06
2019-03-28T13:52:37.770Z,102868.05
2019-03-28T13:55:09.749Z,102870.32
2019-03-28T13:57:38.203Z,102870.37
2019-03-28T14:00:07.708Z,102860.67
2019-03-28T14:02:36.626Z,102854.91
2019-03-28T14:05:07.002Z,102859.89
2019-03-28T14:07:35.466Z,102853.13
2019-03-28T14:10:11.347Z,102854.53
2019-03-28T14:12:40.022Z,102848.95
2019-03-28T14:15:08.782Z,102857.26
2019-03-28T14:17:37.265Z,102858.98
2019-03-28T14:20:06.356Z,102860.87
2019-03-28T14:22:35.017Z,102856.97
2019-03-28T14:25:03.943Z,102856.48
2019-03-28T14:27:32.368Z,102867.49
2019-03-28T14:30:00.843Z,102872.11
2019-03-28T14:32:29.334Z,102867.48
2019-03-28T14:34:57.803Z,102874.92
2019-03-28T14:37:26.301Z,102878.45
2019-03-28T14:39:54.758Z,102875.06
2019-03-28T14:42:23.288Z,102877.55
2019-03-28T14:44:51.721Z,102872.45
2019-03-28T14:47:20.192Z,102883.19
2019-03-28T14:49:48.729Z,102876.88
2019-03-28T14:52:17.193Z,102880.52
2019-03-28T14:54:45.754Z,102875.90
2019-03-28T14:57:15.469Z,102877.17
2019-03-28T14:59:44.600Z,102866.83
2019-03-28T15:02:13.236Z,102867.15
2019-03-28T15:04:41.729Z,102869.69
2019-03-28T15:07:10.213Z,102874.41
2019-03-28T15:09:38.693Z,102875.31
2019-03-28T15:12:07.137Z,102869.35
2019-03-28T15:14:35.607Z,102866.85
2019-03-28T15:17:04.225Z,102861.16
2019-03-28T15:19:32.690Z,102858.37
2019-03-28T15:22:01.151Z,102851.73
2019-03-28T15:24:29.597Z,102852.67
2019-03-28T15:26:58.114Z,102855.78
2019-03-28T15:29:26.556Z,102851.83
2019-03-28T15:31:55.021Z,102850.94
2019-03-28T15:34:23.520Z,102857.44
2019-03-28T15:36:51.960Z,102859.86
2019-03-28T15:39:20.442Z,102848.22
2019-03-28T15:41:48.885Z,102854.55
2019-03-28T15:44:17.351Z,102850.30
2019-03-28T15:46:45.829Z,102850.39
2019-03-28T15:49:14.287Z,102850.30
2019-03-28T15:51:42.764Z,102860.70
2019-03-28T15:54:11.216Z,102858.45
2019-03-28T15:56:39.684Z,102864.15
2019-03-28T15:59:08.163Z,102863.94
2019-03-28T16:01:36.619Z,102870.56
2019-03-28T16:04:05.049Z,102872.35
2019-03-28T16:06:33.498Z,102871.83
2019-03-28T16:09:01.981Z,102874.75
2019-03-28T16:11:30.429Z,102875.05
2019-03-28T16:13:58.902Z,102881.36
2019-03-28T16:16:28.272Z,102879.57
2019-03-28T16:18:56.936Z,102882.29
2019-03-28T16:21:26.928Z,102877.56
2019-03-28T16:23:55.541Z,102877.91
2019-03-28T16:26:24.067Z,102879.48
2019-03-28T16:28:52.474Z,102889.27
2019-03-28T16:31:20.924Z,102895.44
2019-03-28T16:33:49.402Z,102890.48
2019-03-28T16:36:17.833Z,102892.56
2019-03-28T16:38:46.320Z,102894.41
2019-03-28T16:41:14.786Z,102894.22
2019-03-28T16:43:43.235Z,102889.06
2019-03-28T16:46:11.718Z,102897.39
2019-03-28T16:48:40.254Z,102886.15
2019-03-28T16:51:08.713Z,102897.76
2019-03-28T16:53:37.192Z,102892.84
2019-03-28T16:56:05.673Z,102895.36
2019-03-28T16:58:34.152Z,102892.08
2019-03-28T17:01:02.622Z,102892.08
2019-03-28T17:03:31.080Z,102891.18
2019-03-28T17:05:59.601Z,102894.02
2019-03-28T17:08:29.619Z,102892.84
2019-03-28T17:10:58.054Z,102890.44
2019-03-28T17:13:26.534Z,102896.33
2019-03-28T17:15:55.152Z,102895.80
2019-03-28T17:18:23.618Z,102895.64
2019-03-28T17:20:52.071Z,102899.82
2019-03-28T17:23:20.564Z,102899.67
2019-03-28T17:25:49.092Z,102891.73
2019-03-28T17:28:17.714Z,102891.58
2019-03-28T17:30:46.439Z,102894.70
2019-03-28T17:33:17.609Z,102900.67
2019-03-28T17:35:45.149Z,102911.23
2019-03-28T17:38:13.777Z,102911.02
2019-03-28T17:40:42.403Z,102918.45
2019-03-28T17:43:11.227Z,102919.30
2019-03-28T17:45:39.777Z,102920.12
2019-03-28T17:48:08.422Z,102922.71
2019-03-28T17:50:36.893Z,102926.01
2019-03-28T17:53:05.484Z,102934.61
2019-03-28T17:55:33.929Z,102932.02
2019-03-28T17:58:02.398Z,102931.81
2019-03-28T18:00:30.889Z,102934.74
2019-03-28T18:03:09.153Z,102935.17
2019-03-28T18:05:29.579Z,102936.80
2019-03-28T18:07:58.041Z,102937.25
2019-03-28T18:10:26.525Z,102945.54
2019-03-28T18:12:54.983Z,102933.44
2019-03-28T18:15:23.483Z,102932.41
2019-03-28T18:17:51.929Z,102935.22
2019-03-28T18:20:20.409Z,102932.53
2019-03-28T18:22:48.851Z,102937.97
2019-03-28T18:25:17.390Z,102935.34
2019-03-28T18:27:45.827Z,102936.64
2019-03-28T18:30:14.827Z,102939.85
2019-03-28T18:32:44.756Z,102946.52
2019-03-28T18:35:13.616Z,102947.03
2019-03-28T18:37:42.148Z,102953.61
2019-03-28T18:40:10.685Z,102950.81
2019-03-28T18:42:40.087Z,102950.15
2019-03-28T18:45:09.088Z,102956.62
2019-03-28T18:47:37.563Z,102948.33
2019-03-28T18:50:07.550Z,102953.81
2019-03-28T18:52:36.180Z,102941.80
2019-03-28T18:55:06.388Z,102961.20
2019-03-28T18:57:34.885Z,102957.09
2019-03-28T19:00:05.208Z,102959.34
2019-03-28T19:02:33.685Z,102967.03
2019-03-28T19:05:02.134Z,102975.17
2019-03-28T19:07:30.631Z,102979.53
2019-03-28T19:09:59.082Z,102971.28
2019-03-28T19:12:27.538Z,102969.42
2019-03-28T19:14:56.001Z,102974.35
2019-03-28T19:17:24.475Z,102968.78
2019-03-28T19:19:52.974Z,102969.96
2019-03-28T19:22:21.462Z,102975.00
2019-03-28T19:24:49.918Z,102978.05
2019-03-28T19:27:18.845Z,102978.58
2019-03-28T19:29:47.607Z,102981.60
2019-03-28T19:32:16.049Z,102982.07
2019-03-28T19:34:44.512Z,102990.20
2019-03-28T19:37:13.537Z,102989.67
2019-03-28T19:39:42.029Z,102989.13
2019-03-28T19:42:10.478Z,102986.47
2019-03-28T19:44:39.108Z,102996.52
2019-03-28T19:47:07.564Z,102986.81
2019-03-28T19:49:36.076Z,102992.13
2019-03-28T19:52:04.609Z,102996.30
2019-03-28T19:54:33.101Z,103003.08
2019-03-28T19:57:01.569Z,102999.59
2019-03-28T19:59:30.017Z,102999.05
2019-03-28T20:01:58.482Z,103003.97
2019-03-28T20:04:26.918Z,103008.88
2019-03-28T20:06:55.382Z,103007.09
2019-03-28T20:09:23.849Z,102998.50
2019-03-28T20:11:52.354Z,102993.38
2019-03-28T20:14:20.826Z,103001.59
2019-03-28T20:16:49.283Z,102998.56
2019-03-28T20:19:18.077Z,102997.82
2019-03-28T20:21:46.558Z,103001.25
2019-03-28T20:24:15.208Z,102995.28
2019-03-28T20:26:43.660Z,103001.31
2019-03-28T20:29:12.135Z,103003.20
2019-03-28T20:31:40.574Z,103000.75
2019-03-28T20:34:09.055Z,103005.61
2019-03-28T20:36:42.123Z,102999.24
2019-03-28T20:39:09.526Z,103002.95
2019-03-28T20:41:37.983Z,103002.95
2019-03-28T20:44:06.448Z,103006.23
2019-03-28T20:46:34.891Z,103009.91
2019-03-28T20:49:03.353Z,103003.02
2019-03-28T20:51:31.785Z,102999.45
2019-03-28T20:54:00.229Z,103003.56
2019-03-28T20:56:28.698Z,103006.41
2019-03-28T20:58:57.148Z,103000.63
2019-03-28T21:01:25.607Z,103000.20
2019-03-28T21:03:54.216Z,102999.64
2019-03-28T21:06:22.670Z,102997.33
2019-03-28T21:08:51.144Z,102992.06
2019-03-28T21:11:19.579Z,102993.77
2019-03-28T21:13:48.060Z,102998.59
2019-03-28T21:16:16.520Z,102996.37
2019-03-28T21:18:45.004Z,102996.37
2019-03-28T21:21:13.460Z,102998.69
2019-03-28T21:23:41.914Z,102987.50
2019-03-28T21:26:10.378Z,102999.71
2019-03-28T21:28:46.960Z,102991.17
2019-03-28T21:31:09.014Z,103002.63
2019-03-28T21:33:37.460Z,102999.59
2019-03-28T21:36:05.964Z,103002.43
2019-03-28T21:38:34.406Z,103002.43
2019-03-28T21:41:02.873Z,103007.03
2019-03-28T21:43:31.319Z,103005.06
2019-03-28T21:45:59.796Z,102994.84
2019-03-28T21:48:28.246Z,102994.84
2019-03-28T21:50:56.710Z,102997.77
2019-03-28T21:53:25.209Z,103000.26
2019-03-28T21:55:55.456Z,102997.17
2019-03-28T21:58:23.818Z,102993.63
2019-03-28T22:00:52.697Z,102991.87
2019-03-28T22:03:21.147Z,102991.87
2019-03-28T22:05:49.612Z,102996.47
2019-03-28T22:08:18.082Z,102996.47
2019-03-28T22:10:46.522Z,102992.20
2019-03-28T22:13:14.985Z,102992.67
2019-03-28T22:15:43.436Z,102993.70
2019-03-28T22:18:11.936Z,102996.14
2019-03-28T22:20:40.386Z,102997.23
2019-03-28T22:23:08.928Z,102997.23
2019-03-28T22:25:37.396Z,102983.81
2019-03-28T22:28:05.847Z,102989.55
2019-03-28T22:30:34.334Z,102989.55
2019-03-28T22:33:02.773Z,102991.59
2019-03-28T22:35:31.231Z,102993.23
2019-03-28T22:37:59.704Z,102985.67
2019-03-28T22:40:28.151Z,102992.00
2019-03-28T22:42:56.652Z,102995.56
2019-03-28T22:45:25.088Z,102995.84
2019-03-28T22:47:53.535Z,102993.71
2019-03-28T22:50:22.044Z,102988.45
2019-03-28T22:52:50.561Z,102994.67
2019-03-28T22:55:18.994Z,103000.08
2019-03-28T22:57:47.496Z,103003.48
2019-03-28T23:00:16.843Z,103002.86
2019-03-28T23:02:45.269Z,102996.39
2019-03-28T23:05:15.987Z,102993.31
2019-03-28T23:07:44.423Z,102990.98
2019-03-28T23:10:13.226Z,103002.89
2019-03-28T23:12:41.674Z,103011.14
2019-03-28T23:15:10.973Z,103004.03
2019-03-28T23:17:39.704Z,103011.97
2019-03-28T23:20:11.211Z,103005.45
2019-03-28T23:22:39.686Z,103005.45
2019-03-28T23:25:08.517Z,103014.76
2019-03-28T23:27:36.950Z,103020.08
2019-03-28T23:30:09.035Z,103013.61
2019-03-28T23:32:38.748Z,103011.14
2019-03-28T23:35:07.744Z,103010.86
2019-03-28T23:37:36.213Z,103006.41
2019-03-28T23:40:06.307Z,103009.72
2019-03-28T23:42:34.769Z,103004.44
2019-03-28T23:45:03.392Z,103004.44
2019-03-28T23:47:31.825Z,102993.77
2019-03-28T23:50:00.415Z,103002.86
2019-03-28T23:52:28.862Z,103001.44
2019-03-28T23:54:57.369Z,103006.63
2019-03-28T23:57:25.829Z,103009.69
2019-03-28T23:59:54.290Z,103016.18
